createdAt,value
2019-02-24T00:02:12.581Z,4.57
2019-02-24T00:04:41.944Z,3.90
2019-02-24T00:07:11.259Z,3.80
2019-02-24T00:09:40.618Z,3.23
2019-02-24T00:12:09.996Z,3.20
2019-02-24T00:14:39.355Z,3.03
2019-02-24T00:17:08.692Z,2.80
2019-02-24T00:19:38.071Z,3.27
2019-02-24T00:22:07.408Z,2.90
2019-02-24T00:24:36.739Z,3.03
2019-02-24T00:27:06.121Z,2.70
2019-02-24T00:29:35.497Z,2.70
2019-02-24T00:32:04.848Z,3.00
2019-02-24T00:34:34.212Z,2.50
2019-02-24T00:37:03.563Z,2.57
2019-02-24T00:39:32.916Z,2.70
2019-02-24T00:42:02.260Z,2.70
2019-02-24T00:44:31.607Z,2.90
2019-02-24T00:47:00.967Z,2.60
2019-02-24T00:49:30.290Z,2.70
2019-02-24T00:51:59.673Z,2.70
2019-02-24T00:54:29.015Z,2.63
2019-02-24T00:56:58.333Z,2.80
2019-02-24T00:59:27.684Z,2.90
2019-02-24T01:01:57.036Z,2.43
2019-02-24T01:04:26.406Z,2.80
2019-02-24T01:06:55.784Z,2.90
2019-02-24T01:09:25.142Z,2.90
2019-02-24T01:11:54.510Z,3.37
2019-02-24T01:14:23.911Z,2.97
2019-02-24T01:16:53.353Z,2.70
2019-02-24T01:19:22.726Z,2.70
2019-02-24T01:21:52.111Z,2.80
2019-02-24T01:24:21.497Z,2.63
2019-02-24T01:26:50.842Z,2.73
2019-02-24T01:29:20.228Z,2.43
2019-02-24T01:31:49.624Z,2.60
2019-02-24T01:34:18.961Z,2.53
2019-02-24T01:36:48.370Z,2.70
2019-02-24T01:39:17.728Z,2.80
2019-02-24T01:41:47.091Z,2.30
2019-02-24T01:44:16.446Z,2.70
2019-02-24T01:46:45.825Z,2.40
2019-02-24T01:49:15.165Z,2.30
2019-02-24T01:51:44.510Z,3.10
2019-02-24T01:54:13.852Z,2.60
2019-02-24T01:56:43.206Z,2.83
2019-02-24T01:59:12.545Z,2.60
2019-02-24T02:01:41.939Z,2.60
2019-02-24T02:04:11.296Z,2.53
2019-02-24T02:06:40.659Z,2.63
2019-02-24T02:09:10.063Z,2.60
2019-02-24T02:11:39.432Z,2.60
2019-02-24T02:14:08.787Z,2.43
2019-02-24T02:16:38.284Z,2.53
2019-02-24T02:19:07.678Z,2.83
2019-02-24T02:21:37.043Z,2.30
2019-02-24T02:24:06.401Z,2.57
2019-02-24T02:26:35.814Z,2.77
2019-02-24T02:29:05.150Z,2.50
2019-02-24T02:31:34.501Z,2.40
2019-02-24T02:34:03.869Z,2.70
2019-02-24T02:36:33.282Z,2.90
2019-02-24T02:39:02.591Z,2.50
2019-02-24T02:41:32.049Z,2.67
2019-02-24T02:44:01.399Z,2.70
2019-02-24T02:46:30.768Z,2.17
2019-02-24T02:49:00.176Z,3.03
2019-02-24T02:51:29.542Z,2.70
2019-02-24T02:53:58.908Z,9.43
2019-02-24T02:56:28.277Z,11.43
2019-02-24T02:58:57.633Z,5.50
2019-02-24T03:01:26.969Z,3.80
2019-02-24T03:03:56.363Z,3.20
2019-02-24T03:06:31.601Z,3.07
2019-02-24T03:09:00.978Z,3.00
2019-02-24T03:11:30.450Z,2.87
2019-02-24T03:13:59.802Z,2.40
2019-02-24T03:16:29.576Z,2.60
2019-02-24T03:18:58.954Z,2.50
2019-02-24T03:21:28.291Z,2.53
2019-02-24T03:23:57.661Z,2.47
2019-02-24T03:26:26.997Z,2.47
2019-02-24T03:29:03.890Z,2.90
2019-02-24T03:31:27.468Z,2.80
2019-02-24T03:33:56.794Z,2.70
2019-02-24T03:36:26.178Z,2.37
2019-02-24T03:38:55.521Z,2.60
2019-02-24T03:41:24.842Z,2.30
2019-02-24T03:43:54.167Z,2.87
2019-02-24T03:46:23.519Z,2.67
2019-02-24T03:48:52.861Z,2.53
2019-02-24T03:51:22.194Z,2.40
2019-02-24T03:53:51.561Z,2.77
2019-02-24T03:56:20.897Z,2.70
2019-02-24T03:58:50.266Z,2.47
2019-02-24T04:01:19.622Z,2.40
2019-02-24T04:03:49.019Z,2.73
2019-02-24T04:06:18.373Z,2.53
2019-02-24T04:08:47.706Z,2.90
2019-02-24T04:11:17.086Z,2.90
2019-02-24T04:13:46.537Z,3.03
2019-02-24T04:16:15.882Z,3.03
2019-02-24T04:18:45.232Z,3.17
2019-02-24T04:21:14.578Z,2.80
2019-02-24T04:23:43.935Z,2.97
2019-02-24T04:26:13.298Z,2.87
2019-02-24T04:28:42.648Z,3.00
2019-02-24T04:31:12.007Z,3.73
2019-02-24T04:33:41.331Z,3.40
2019-02-24T04:36:10.686Z,2.87
2019-02-24T04:38:40.011Z,3.23
2019-02-24T04:41:09.425Z,3.50
2019-02-24T04:43:38.767Z,2.80
2019-02-24T04:46:08.129Z,3.10
2019-02-24T04:48:37.547Z,2.87
2019-02-24T04:51:06.830Z,2.43
2019-02-24T04:53:36.176Z,3.23
2019-02-24T04:56:05.515Z,3.60
2019-02-24T04:58:34.863Z,3.90
2019-02-24T05:01:04.220Z,2.47
2019-02-24T05:03:33.613Z,2.70
2019-02-24T05:06:02.938Z,2.90
2019-02-24T05:08:32.287Z,2.53
2019-02-24T05:11:01.628Z,2.53
2019-02-24T05:13:30.985Z,3.50
2019-02-24T05:16:00.340Z,3.10
2019-02-24T05:18:29.712Z,3.10
2019-02-24T05:20:59.035Z,2.57
2019-02-24T05:23:28.389Z,3.60
2019-02-24T05:25:57.741Z,4.37
2019-02-24T05:28:27.083Z,4.80
2019-02-24T05:30:56.535Z,6.20
2019-02-24T05:33:25.951Z,5.80
2019-02-24T05:35:55.312Z,6.83
2019-02-24T05:38:24.708Z,6.30
2019-02-24T05:40:54.052Z,6.67
2019-02-24T05:43:23.393Z,6.97
2019-02-24T05:45:52.755Z,6.43
2019-02-24T05:48:22.145Z,30.93
2019-02-24T05:50:51.470Z,7.37
2019-02-24T05:53:20.907Z,6.50
2019-02-24T05:55:50.249Z,7.07
2019-02-24T05:58:20.215Z,6.50
2019-02-24T06:00:49.555Z,6.10
2019-02-24T06:03:18.930Z,5.53
2019-02-24T06:05:48.273Z,5.30
2019-02-24T06:08:17.617Z,4.43
2019-02-24T06:10:46.998Z,5.20
2019-02-24T06:13:16.391Z,4.80
2019-02-24T06:15:45.810Z,5.23
2019-02-24T06:18:15.176Z,5.13
2019-02-24T06:20:44.505Z,5.10
2019-02-24T06:23:13.892Z,3.63
2019-02-24T06:25:43.275Z,4.53
2019-02-24T06:28:12.632Z,4.20
2019-02-24T06:30:41.996Z,4.47
2019-02-24T06:33:11.381Z,3.90
2019-02-24T06:35:40.715Z,3.83
2019-02-24T06:38:10.103Z,3.47
2019-02-24T06:40:39.504Z,2.97
2019-02-24T06:43:08.872Z,3.60
2019-02-24T06:45:38.231Z,3.10
2019-02-24T06:48:07.776Z,3.00
2019-02-24T06:50:54.932Z,2.90
2019-02-24T06:53:24.317Z,2.80
2019-02-24T06:55:53.689Z,2.33
2019-02-24T06:58:23.091Z,3.00
2019-02-24T07:00:52.510Z,3.20
2019-02-24T07:03:21.846Z,3.40
2019-02-24T07:05:51.280Z,10.10
2019-02-24T07:08:20.658Z,3.00
2019-02-24T07:10:50.001Z,3.00
2019-02-24T07:13:19.335Z,2.63
2019-02-24T07:15:48.723Z,2.97
2019-02-24T07:18:18.085Z,3.00
2019-02-24T07:20:47.491Z,2.70
2019-02-24T07:23:16.861Z,2.97
2019-02-24T07:25:46.243Z,3.30
2019-02-24T07:28:15.719Z,3.00
2019-02-24T07:30:45.069Z,2.83
2019-02-24T07:33:14.442Z,3.23
2019-02-24T07:35:43.883Z,2.47
2019-02-24T07:38:13.332Z,3.07
2019-02-24T07:40:42.702Z,2.70
2019-02-24T07:43:12.050Z,2.80
2019-02-24T07:45:41.436Z,3.20
2019-02-24T07:48:10.895Z,2.80
2019-02-24T07:50:40.434Z,3.27
2019-02-24T07:53:09.832Z,2.73
2019-02-24T07:55:39.343Z,3.50
2019-02-24T07:58:08.920Z,3.77
2019-02-24T08:00:38.290Z,3.03
2019-02-24T08:03:07.675Z,2.97
2019-02-24T08:05:37.033Z,2.90
2019-02-24T08:08:06.436Z,3.17
2019-02-24T08:10:35.771Z,2.73
2019-02-24T08:13:05.244Z,4.93
2019-02-24T08:15:34.744Z,3.00
2019-02-24T08:18:04.132Z,3.30
2019-02-24T08:20:33.548Z,3.43
2019-02-24T08:23:02.924Z,3.00
2019-02-24T08:25:32.302Z,3.13
2019-02-24T08:28:02.635Z,3.17
2019-02-24T08:30:41.010Z,2.83
2019-02-24T08:33:03.141Z,3.47
2019-02-24T08:35:32.489Z,3.43
2019-02-24T08:38:02.917Z,3.33
2019-02-24T08:40:32.340Z,2.77
2019-02-24T08:43:02.075Z,2.70
2019-02-24T08:45:31.429Z,2.93
2019-02-24T08:48:00.814Z,2.80
2019-02-24T08:50:30.262Z,3.10
2019-02-24T08:52:59.600Z,3.20
2019-02-24T08:55:29.037Z,3.40
2019-02-24T08:57:58.425Z,3.90
2019-02-24T09:00:27.884Z,3.53
2019-02-24T09:02:57.260Z,3.00
2019-02-24T09:05:26.686Z,3.20
2019-02-24T09:07:56.076Z,3.30
2019-02-24T09:10:25.427Z,2.93
2019-02-24T09:12:54.741Z,3.00
2019-02-24T09:15:24.099Z,3.00
2019-02-24T09:17:53.514Z,3.50
2019-02-24T09:20:22.847Z,3.10
2019-02-24T09:22:52.317Z,3.10
2019-02-24T09:25:21.694Z,2.90
2019-02-24T09:27:51.035Z,4.23
2019-02-24T09:30:20.475Z,2.77
2019-02-24T09:32:49.853Z,3.17
2019-02-24T09:35:19.157Z,3.63
2019-02-24T09:37:48.523Z,2.97
2019-02-24T09:40:17.869Z,2.67
2019-02-24T09:42:47.223Z,3.10
2019-02-24T09:45:16.602Z,3.60
2019-02-24T09:47:47.073Z,3.15
2019-02-24T09:50:16.676Z,3.43
2019-02-24T09:52:46.093Z,8.73
2019-02-24T09:55:15.461Z,3.17
2019-02-24T09:57:44.916Z,3.50
2019-02-24T10:00:14.457Z,3.60
2019-02-24T10:02:43.819Z,3.70
2019-02-24T10:05:13.479Z,2.90
2019-02-24T10:07:42.819Z,3.23
2019-02-24T10:10:12.253Z,3.70
2019-02-24T10:12:41.623Z,3.30
2019-02-24T10:15:11.233Z,4.17
2019-02-24T10:17:40.571Z,3.03
2019-02-24T10:20:10.019Z,3.13
2019-02-24T10:22:39.393Z,3.00
2019-02-24T10:25:09.177Z,2.90
2019-02-24T10:27:38.790Z,3.00
2019-02-24T10:30:09.021Z,2.80
2019-02-24T10:32:38.394Z,3.00
2019-02-24T10:35:08.040Z,3.10
2019-02-24T10:37:37.409Z,4.67
2019-02-24T10:40:08.704Z,2.50
2019-02-24T10:42:38.075Z,2.70
2019-02-24T10:45:09.570Z,2.53
2019-02-24T10:47:40.213Z,2.87
2019-02-24T10:50:11.859Z,3.20
2019-02-24T10:52:41.326Z,2.90
2019-02-24T10:55:10.951Z,2.67
2019-02-24T10:57:40.372Z,3.13
2019-02-24T11:00:11.982Z,2.97
2019-02-24T11:02:41.351Z,2.80
2019-02-24T11:05:11.473Z,2.90
2019-02-24T11:07:40.909Z,2.67
2019-02-24T11:10:10.437Z,2.80
2019-02-24T11:12:39.782Z,2.60
2019-02-24T11:15:09.370Z,3.17
2019-02-24T11:17:38.791Z,3.17
2019-02-24T11:20:08.909Z,3.00
2019-02-24T11:22:38.283Z,3.87
2019-02-24T11:25:08.313Z,3.10
2019-02-24T11:27:37.756Z,3.33
2019-02-24T11:30:07.945Z,5.67
2019-02-24T11:32:37.383Z,4.27
2019-02-24T11:35:06.954Z,3.00
2019-02-24T11:37:36.405Z,7.00
2019-02-24T11:40:06.890Z,3.60
2019-02-24T11:42:36.450Z,3.10
2019-02-24T11:45:06.230Z,3.57
2019-02-24T11:47:35.811Z,4.90
2019-02-24T11:50:05.289Z,3.07
2019-02-24T11:52:34.797Z,3.27
2019-02-24T11:55:04.249Z,3.03
2019-02-24T11:57:33.625Z,4.10
2019-02-24T12:00:03.079Z,5.77
2019-02-24T12:02:34.696Z,3.97
2019-02-24T12:05:03.715Z,3.80
2019-02-24T12:07:33.086Z,4.40
2019-02-24T12:10:02.534Z,4.07
2019-02-24T12:12:31.975Z,3.93
2019-02-24T12:15:01.305Z,3.70
2019-02-24T12:17:33.010Z,3.73
2019-02-24T12:20:02.404Z,3.50
2019-02-24T12:22:31.785Z,4.00
2019-02-24T12:25:01.273Z,3.23
2019-02-24T12:27:30.677Z,3.77
2019-02-24T12:30:00.104Z,3.67
2019-02-24T12:32:29.500Z,3.90
2019-02-24T12:34:58.867Z,4.50
2019-02-24T12:37:28.585Z,4.30
2019-02-24T12:39:57.997Z,3.97
2019-02-24T12:42:27.391Z,4.03
2019-02-24T12:44:56.742Z,4.80
2019-02-24T12:47:26.084Z,17.73
2019-02-24T12:50:02.955Z,4.27
2019-02-24T12:52:26.559Z,4.67
2019-02-24T12:54:56.670Z,4.27
2019-02-24T12:57:26.010Z,4.60
2019-02-24T12:59:55.448Z,4.60
2019-02-24T13:02:24.821Z,5.10
2019-02-24T13:04:54.257Z,4.53
2019-02-24T13:07:23.684Z,3.63
2019-02-24T13:09:53.066Z,3.37
2019-02-24T13:12:22.659Z,3.10
2019-02-24T13:14:52.096Z,3.10
2019-02-24T13:17:21.486Z,3.37
2019-02-24T13:19:50.912Z,3.10
2019-02-24T13:22:20.291Z,3.40
2019-02-24T13:24:49.994Z,3.70
2019-02-24T13:27:19.351Z,4.10
2019-02-24T13:29:48.771Z,4.37
2019-02-24T13:32:18.169Z,4.57
2019-02-24T13:34:47.571Z,3.93
2019-02-24T13:37:16.935Z,6.73
2019-02-24T13:39:46.301Z,6.23
2019-02-24T13:42:15.984Z,8.67
2019-02-24T13:44:45.340Z,4.40
2019-02-24T13:47:14.696Z,3.37
2019-02-24T13:49:44.053Z,3.53
2019-02-24T13:52:13.439Z,6.53
2019-02-24T13:54:42.897Z,7.67
2019-02-24T13:57:12.272Z,5.50
2019-02-24T13:59:41.712Z,6.30
2019-02-24T14:02:11.055Z,6.77
2019-02-24T14:04:40.447Z,6.33
2019-02-24T14:07:09.858Z,5.07
2019-02-24T14:09:39.324Z,4.77
2019-02-24T14:12:08.677Z,4.40
2019-02-24T14:14:38.061Z,4.13
2019-02-24T14:17:07.418Z,4.63
2019-02-24T14:19:36.841Z,3.80
2019-02-24T14:22:06.232Z,10.40
2019-02-24T14:24:35.596Z,5.13
2019-02-24T14:27:04.962Z,5.17
2019-02-24T14:29:34.336Z,4.63
2019-02-24T14:32:03.842Z,4.27
2019-02-24T14:34:33.239Z,3.57
2019-02-24T14:37:02.651Z,4.43
2019-02-24T14:39:32.002Z,4.17
2019-02-24T14:42:01.394Z,3.97
2019-02-24T14:44:30.766Z,4.07
2019-02-24T14:47:00.391Z,3.37
2019-02-24T14:49:29.682Z,4.10
2019-02-24T14:51:59.089Z,4.17
2019-02-24T14:54:28.449Z,3.60
2019-02-24T14:56:57.798Z,3.90
2019-02-24T14:59:28.531Z,3.57
2019-02-24T15:01:57.939Z,2.90
2019-02-24T15:04:27.315Z,3.10
2019-02-24T15:06:56.690Z,3.40
2019-02-24T15:09:26.083Z,4.63
2019-02-24T15:11:55.455Z,6.80
2019-02-24T15:14:24.828Z,3.87
2019-02-24T15:16:54.272Z,3.10
2019-02-24T15:19:23.646Z,4.33
2019-02-24T15:21:53.042Z,5.23
2019-02-24T15:24:22.395Z,4.30
2019-02-24T15:26:51.732Z,3.43
2019-02-24T15:29:21.103Z,3.80
2019-02-24T15:31:50.506Z,22.77
2019-02-24T15:34:19.857Z,4.17
2019-02-24T15:36:49.290Z,4.22
2019-02-24T15:39:18.669Z,3.90
2019-02-24T15:41:48.026Z,4.50
2019-02-24T15:44:17.399Z,4.50
2019-02-24T15:46:46.787Z,4.53
2019-02-24T15:49:16.168Z,4.53
2019-02-24T15:51:47.378Z,4.47
2019-02-24T15:54:16.723Z,10.67
2019-02-24T15:56:46.134Z,10.80
2019-02-24T15:59:15.684Z,6.70
2019-02-24T16:01:45.060Z,7.00
2019-02-24T16:04:14.503Z,8.17
2019-02-24T16:06:44.051Z,5.75
2019-02-24T16:09:13.379Z,4.70
2019-02-24T16:11:42.821Z,5.07
2019-02-24T16:14:12.188Z,4.90
2019-02-24T16:16:41.568Z,4.17
2019-02-24T16:19:10.946Z,4.47
2019-02-24T16:21:40.304Z,4.90
2019-02-24T16:24:09.665Z,4.47
2019-02-24T16:26:39.043Z,3.90
2019-02-24T16:29:08.458Z,4.07
2019-02-24T16:31:37.901Z,4.70
2019-02-24T16:34:07.323Z,5.27
2019-02-24T16:36:36.769Z,4.57
2019-02-24T16:39:06.127Z,5.20
2019-02-24T16:41:35.590Z,4.90
2019-02-24T16:44:04.984Z,4.73
2019-02-24T16:46:34.404Z,4.63
2019-02-24T16:49:03.768Z,4.97
2019-02-24T16:51:33.132Z,5.27
2019-02-24T16:54:02.540Z,5.40
2019-02-24T16:56:31.906Z,4.67
2019-02-24T16:59:01.273Z,5.27
2019-02-24T17:01:30.708Z,5.33
2019-02-24T17:04:00.062Z,5.40
2019-02-24T17:06:29.410Z,5.67
2019-02-24T17:09:01.458Z,5.97
2019-02-24T17:11:29.956Z,4.70
2019-02-24T17:13:59.416Z,5.40
2019-02-24T17:16:28.878Z,5.20
2019-02-24T17:18:59.327Z,5.40
2019-02-24T17:21:28.669Z,5.30
2019-02-24T17:23:58.091Z,5.73
2019-02-24T17:26:27.489Z,6.63
2019-02-24T17:28:56.878Z,5.50
2019-02-24T17:31:28.584Z,5.40
2019-02-24T17:33:57.488Z,7.58
2019-02-24T17:36:26.871Z,6.87
2019-02-24T17:38:56.245Z,6.20
2019-02-24T17:41:25.699Z,6.10
2019-02-24T17:43:55.060Z,5.10
2019-02-24T17:46:24.435Z,6.00
2019-02-24T17:48:53.812Z,5.57
2019-02-24T17:51:23.314Z,5.43
2019-02-24T17:53:52.709Z,6.60
2019-02-24T17:56:22.188Z,6.40
2019-02-24T17:58:51.757Z,7.00
2019-02-24T18:01:21.346Z,6.97
2019-02-24T18:03:50.798Z,8.40
2019-02-24T18:06:20.447Z,9.93
2019-02-24T18:08:54.206Z,8.10
2019-02-24T18:11:20.986Z,7.37
2019-02-24T18:13:50.348Z,7.00
2019-02-24T18:16:20.000Z,7.73
2019-02-24T18:18:49.400Z,7.93
2019-02-24T18:21:19.666Z,8.27
2019-02-24T18:23:49.676Z,7.60
2019-02-24T18:26:19.065Z,7.57
2019-02-24T18:28:48.498Z,7.67
2019-02-24T18:31:17.928Z,7.73
2019-02-24T18:33:48.582Z,7.30
2019-02-24T18:36:18.064Z,8.47
2019-02-24T18:38:47.501Z,9.10
2019-02-24T18:41:19.109Z,7.40
2019-02-24T18:43:49.005Z,7.50
2019-02-24T18:46:18.386Z,8.27
2019-02-24T18:48:47.889Z,8.47
2019-02-24T18:51:17.262Z,8.27
2019-02-24T18:53:46.722Z,7.83
2019-02-24T18:56:16.229Z,8.20
2019-02-24T18:58:45.594Z,7.67
2019-02-24T19:01:14.976Z,7.77
2019-02-24T19:03:44.334Z,6.73
2019-02-24T19:06:13.690Z,7.60
2019-02-24T19:08:43.040Z,6.30
2019-02-24T19:11:12.683Z,5.40
2019-02-24T19:13:42.064Z,5.57
2019-02-24T19:16:11.456Z,6.50
2019-02-24T19:18:40.899Z,6.53
2019-02-24T19:21:10.379Z,6.93
2019-02-24T19:23:39.800Z,6.43
2019-02-24T19:26:09.187Z,6.20
2019-02-24T19:28:39.052Z,7.23
2019-02-24T19:31:08.735Z,6.47
2019-02-24T19:33:38.167Z,6.50
2019-02-24T19:36:07.568Z,5.80
2019-02-24T19:38:36.969Z,6.17
2019-02-24T19:41:06.744Z,5.07
2019-02-24T19:43:38.383Z,5.27
2019-02-24T19:46:07.752Z,4.83
2019-02-24T19:48:42.082Z,4.37
2019-02-24T19:51:08.213Z,4.63
2019-02-24T19:53:37.579Z,4.53
2019-02-24T19:56:07.169Z,4.47
2019-02-24T19:58:36.522Z,5.33
2019-02-24T20:01:05.907Z,6.00
2019-02-24T20:03:35.284Z,5.50
2019-02-24T20:06:05.687Z,5.23
2019-02-24T20:08:35.113Z,6.20
2019-02-24T20:11:04.980Z,8.53
2019-02-24T20:13:34.357Z,5.43
2019-02-24T20:16:03.737Z,5.93
2019-02-24T20:18:33.139Z,5.53
2019-02-24T20:21:04.599Z,6.40
2019-02-24T20:23:33.996Z,5.73
2019-02-24T20:26:03.722Z,5.53
2019-02-24T20:28:33.189Z,6.00
2019-02-24T20:31:02.589Z,6.30
2019-02-24T20:33:31.994Z,6.70
2019-02-24T20:36:01.388Z,7.80
2019-02-24T20:38:30.792Z,7.90
2019-02-24T20:41:00.358Z,7.37
2019-02-24T20:43:29.747Z,6.70
2019-02-24T20:45:59.102Z,7.20
2019-02-24T20:48:28.435Z,6.70
2019-02-24T20:50:57.794Z,6.40
2019-02-24T20:53:27.199Z,6.77
2019-02-24T20:55:56.636Z,7.47
2019-02-24T20:58:26.024Z,6.47
2019-02-24T21:00:55.466Z,6.53
2019-02-24T21:03:24.878Z,6.30
2019-02-24T21:05:54.336Z,6.33
2019-02-24T21:08:23.653Z,5.90
2019-02-24T21:10:53.080Z,5.70
2019-02-24T21:13:22.470Z,5.43
2019-02-24T21:15:51.847Z,5.70
2019-02-24T21:18:21.245Z,6.07
2019-02-24T21:20:50.600Z,7.13
2019-02-24T21:23:19.999Z,6.80
2019-02-24T21:25:49.360Z,6.60
2019-02-24T21:28:18.779Z,7.57
2019-02-24T21:30:48.203Z,6.57
2019-02-24T21:33:17.573Z,6.23
2019-02-24T21:35:46.918Z,6.20
2019-02-24T21:38:16.273Z,6.40
2019-02-24T21:40:45.629Z,15.13
2019-02-24T21:43:14.980Z,23.10
2019-02-24T21:45:44.400Z,18.60
2019-02-24T21:48:13.750Z,17.67
2019-02-24T21:50:43.140Z,8.73
2019-02-24T21:53:12.684Z,6.77
2019-02-24T21:55:42.094Z,6.90
2019-02-24T21:58:11.535Z,6.30
2019-02-24T22:00:41.116Z,6.23
2019-02-24T22:03:10.527Z,5.87
2019-02-24T22:05:39.934Z,6.07
2019-02-24T22:08:09.342Z,6.00
2019-02-24T22:10:38.744Z,5.93
2019-02-24T22:13:08.125Z,6.73
2019-02-24T22:15:37.540Z,7.67
2019-02-24T22:18:06.999Z,7.33
2019-02-24T22:20:36.395Z,6.90
2019-02-24T22:23:05.811Z,6.90
2019-02-24T22:25:36.188Z,7.33
2019-02-24T22:28:05.970Z,6.57
2019-02-24T22:30:36.312Z,7.03
2019-02-24T22:33:05.775Z,6.37
2019-02-24T22:35:35.140Z,6.17
2019-02-24T22:38:04.533Z,6.47
2019-02-24T22:40:33.872Z,6.00
2019-02-24T22:43:03.228Z,5.40
2019-02-24T22:45:32.610Z,6.27
2019-02-24T22:48:03.139Z,6.40
2019-02-24T22:50:32.634Z,8.03
2019-02-24T22:53:01.987Z,9.70
2019-02-24T22:55:31.319Z,9.97
2019-02-24T22:58:00.695Z,11.20
2019-02-24T23:01:04.230Z,11.60
2019-02-24T23:03:36.411Z,11.13
2019-02-24T23:06:06.432Z,11.13
2019-02-24T23:08:35.810Z,11.53
2019-02-24T23:11:05.187Z,11.43
2019-02-24T23:13:34.580Z,12.47
2019-02-24T23:16:03.941Z,11.83
2019-02-24T23:18:33.313Z,11.77
2019-02-24T23:21:02.736Z,11.77
2019-02-24T23:23:32.076Z,13.20
2019-02-24T23:26:01.499Z,13.17
2019-02-24T23:28:32.614Z,13.00
2019-02-24T23:31:01.991Z,15.83
2019-02-24T23:33:31.360Z,17.27
2019-02-24T23:36:00.717Z,15.60
2019-02-24T23:38:30.079Z,14.20
2019-02-24T23:40:59.532Z,14.70
2019-02-24T23:43:30.669Z,15.93
2019-02-24T23:46:00.156Z,14.57
2019-02-24T23:48:29.539Z,14.53
2019-02-24T23:50:58.908Z,13.83
2019-02-24T23:53:28.288Z,13.83
2019-02-24T23:55:57.714Z,13.13
2019-02-24T23:58:27.103Z,13.80
